createdAt,value
2019-05-02T00:00:01.587Z,96.78
2019-05-02T00:01:01.549Z,96.99
2019-05-02T00:02:01.562Z,96.58
2019-05-02T00:03:04.563Z,96.62
2019-05-02T00:04:01.535Z,97.19
2019-05-02T00:05:01.511Z,97.19
2019-05-02T00:06:02.884Z,97.19
2019-05-02T00:07:02.514Z,97.24
2019-05-02T00:08:01.485Z,97.03
2019-05-02T00:09:03.954Z,97.30
2019-05-02T00:10:02.461Z,97.09
2019-05-02T00:11:01.465Z,96.83
2019-05-02T00:12:03.144Z,96.83
2019-05-02T00:13:01.431Z,96.52
2019-05-02T00:14:01.416Z,96.62
2019-05-02T00:15:02.189Z,96.72
2019-05-02T00:16:01.409Z,96.52
2019-05-02T00:17:01.393Z,97.34
2019-05-02T00:18:04.203Z,96.72
2019-05-02T00:19:01.362Z,96.62
2019-05-02T00:20:01.353Z,96.93
2019-05-02T00:21:03.136Z,96.52
2019-05-02T00:22:01.329Z,96.93
2019-05-02T00:23:01.351Z,96.83
2019-05-02T00:24:03.005Z,96.83
2019-05-02T00:25:01.292Z,96.52
2019-05-02T00:26:01.289Z,96.72
2019-05-02T00:27:03.132Z,96.31
2019-05-02T00:28:03.121Z,96.46
2019-05-02T00:29:01.256Z,97.34
2019-05-02T00:30:01.242Z,96.67
2019-05-02T00:31:01.235Z,96.52
2019-05-02T00:32:01.218Z,96.88
2019-05-02T00:33:03.130Z,96.11
2019-05-02T00:34:01.196Z,96.72
2019-05-02T00:35:01.197Z,96.72
2019-05-02T00:36:01.212Z,96.52
2019-05-02T00:37:01.175Z,96.77
2019-05-02T00:38:03.902Z,96.97
2019-05-02T00:39:01.148Z,97.28
2019-05-02T00:40:01.140Z,97.18
2019-05-02T00:41:02.239Z,97.33
2019-05-02T00:42:12.049Z,97.69
2019-05-02T00:43:03.161Z,97.13
2019-05-02T00:44:01.090Z,97.33
2019-05-02T00:45:01.078Z,97.53
2019-05-02T00:46:01.072Z,97.64
2019-05-02T00:47:01.068Z,97.95
2019-05-02T00:48:03.196Z,97.78
2019-05-02T00:49:01.846Z,97.95
2019-05-02T00:50:01.030Z,98.05
2019-05-02T00:51:01.017Z,97.95
2019-05-02T00:52:02.860Z,97.89
2019-05-02T00:53:07.103Z,98.15
2019-05-02T00:54:02.015Z,97.89
2019-05-02T00:55:00.970Z,98.10
2019-05-02T00:56:05.053Z,98.10
2019-05-02T00:57:01.958Z,98.92
2019-05-02T00:58:03.225Z,97.99
2019-05-02T00:59:02.446Z,98.20
2019-05-02T01:00:01.921Z,98.30
2019-05-02T01:01:00.915Z,98.71
2019-05-02T01:02:05.308Z,98.50
2019-05-02T01:03:01.915Z,99.07
2019-05-02T01:04:00.875Z,98.92
2019-05-02T01:05:03.276Z,99.13
2019-05-02T01:06:00.875Z,98.71
2019-05-02T01:07:00.853Z,98.97
2019-05-02T01:08:02.867Z,98.97
2019-05-02T01:09:00.824Z,99.07
2019-05-02T01:10:00.821Z,99.07
2019-05-02T01:11:00.801Z,98.76
2019-05-02T01:12:03.103Z,98.86
2019-05-02T01:13:03.475Z,99.27
2019-05-02T01:14:00.797Z,99.38
2019-05-02T01:15:03.223Z,99.27
2019-05-02T01:16:01.741Z,99.07
2019-05-02T01:17:00.747Z,99.17
2019-05-02T01:18:01.193Z,99.07
2019-05-02T01:19:04.152Z,99.07
2019-05-02T01:20:00.714Z,99.17
2019-05-02T01:21:02.860Z,98.76
2019-05-02T01:22:00.694Z,98.86
2019-05-02T01:23:00.677Z,99.07
2019-05-02T01:24:03.311Z,98.60
2019-05-02T01:25:00.658Z,98.76
2019-05-02T01:26:00.714Z,98.86
2019-05-02T01:27:04.655Z,98.80
2019-05-02T01:28:01.615Z,99.22
2019-05-02T01:29:04.315Z,98.80
2019-05-02T01:30:01.690Z,99.22
2019-05-02T01:31:01.702Z,99.22
2019-05-02T01:32:00.581Z,99.32
2019-05-02T01:33:01.304Z,98.80
2019-05-02T01:34:03.063Z,99.43
2019-05-02T01:35:00.547Z,99.37
2019-05-02T01:36:01.742Z,99.84
2019-05-02T01:37:01.526Z,99.63
2019-05-02T01:38:00.519Z,99.47
2019-05-02T01:39:07.580Z,99.37
2019-05-02T01:40:01.530Z,99.32
2019-05-02T01:41:00.490Z,99.37
2019-05-02T01:42:04.033Z,99.88
2019-05-02T01:43:00.468Z,99.26
2019-05-02T01:44:03.367Z,99.78
2019-05-02T01:45:00.446Z,99.57
2019-05-02T01:46:00.445Z,99.99
2019-05-02T01:47:00.416Z,99.99
2019-05-02T01:48:00.416Z,99.99
2019-05-02T01:49:04.134Z,99.99
2019-05-02T01:50:00.384Z,99.99
2019-05-02T01:51:04.651Z,99.99
2019-05-02T01:52:01.379Z,99.99
2019-05-02T01:53:00.355Z,99.99
2019-05-02T01:54:05.054Z,99.99
2019-05-02T01:55:01.332Z,99.99
2019-05-02T01:56:00.320Z,99.99
2019-05-02T01:57:04.002Z,99.88
2019-05-02T01:58:01.301Z,99.47
2019-05-02T01:59:01.221Z,99.57
2019-05-02T02:00:04.274Z,99.68
2019-05-02T02:01:01.269Z,99.26
2019-05-02T02:02:00.254Z,99.88
2019-05-02T02:03:04.274Z,99.37
2019-05-02T02:04:03.037Z,99.99
2019-05-02T02:05:00.230Z,99.47
2019-05-02T02:06:02.829Z,99.82
2019-05-02T02:07:01.205Z,99.47
2019-05-02T02:08:00.201Z,99.62
2019-05-02T02:09:08.292Z,99.52
2019-05-02T02:10:01.167Z,99.41
2019-05-02T02:11:00.166Z,99.62
2019-05-02T02:12:00.152Z,99.62
2019-05-02T02:13:04.717Z,99.31
2019-05-02T02:14:07.400Z,99.52
2019-05-02T02:15:01.123Z,99.41
2019-05-02T02:16:04.248Z,99.52
2019-05-02T02:17:01.094Z,99.66
2019-05-02T02:18:00.087Z,99.35
2019-05-02T02:19:03.934Z,99.93
2019-05-02T02:20:03.581Z,99.77
2019-05-02T02:21:00.061Z,99.99
2019-05-02T02:22:02.938Z,99.99
2019-05-02T02:23:00.033Z,99.99
2019-05-02T02:24:00.036Z,99.99
2019-05-02T02:25:03.581Z,99.77
2019-05-02T02:26:00.007Z,99.99
2019-05-02T02:26:59.995Z,99.99
2019-05-02T02:28:01.040Z,99.99
2019-05-02T02:29:03.033Z,99.99
2019-05-02T02:30:03.392Z,99.99
2019-05-02T02:31:04.840Z,99.99
2019-05-02T02:32:00.955Z,99.99
2019-05-02T02:33:07.647Z,99.99
2019-05-02T02:34:00.923Z,99.99
2019-05-02T02:35:03.616Z,99.99
2019-05-02T02:36:00.893Z,99.99
2019-05-02T02:37:05.677Z,99.99
2019-05-02T02:38:00.877Z,99.99
2019-05-02T02:38:59.862Z,99.99
2019-05-02T02:39:59.867Z,99.99
2019-05-02T02:40:59.864Z,99.99
2019-05-02T02:41:59.826Z,99.99
2019-05-02T02:43:12.626Z,99.99
2019-05-02T02:44:02.921Z,99.99
2019-05-02T02:44:59.814Z,99.99
2019-05-02T02:46:00.026Z,99.99
2019-05-02T02:46:59.778Z,99.99
2019-05-02T02:48:02.087Z,99.99
2019-05-02T02:48:59.761Z,99.99
2019-05-02T02:50:02.301Z,99.99
2019-05-02T02:50:59.725Z,99.99
2019-05-02T02:52:04.768Z,99.99
2019-05-02T02:53:00.716Z,99.99
2019-05-02T02:54:03.876Z,99.99
2019-05-02T02:55:03.184Z,99.99
2019-05-02T02:56:01.801Z,99.99
2019-05-02T02:56:59.691Z,99.99
2019-05-02T02:58:04.812Z,99.99
2019-05-02T02:59:00.648Z,99.99
2019-05-02T03:00:07.306Z,99.99
2019-05-02T03:01:03.111Z,99.99
2019-05-02T03:02:08.740Z,99.99
2019-05-02T03:03:00.606Z,99.99
2019-05-02T03:04:01.937Z,99.99
2019-05-02T03:05:00.586Z,99.99
2019-05-02T03:06:06.303Z,99.99
2019-05-02T03:07:00.562Z,99.99
2019-05-02T03:08:05.483Z,99.99
2019-05-02T03:09:00.539Z,99.99
2019-05-02T03:10:05.890Z,99.99
2019-05-02T03:11:04.071Z,99.99
2019-05-02T03:12:02.031Z,99.99
2019-05-02T03:12:59.496Z,99.99
2019-05-02T03:14:05.505Z,99.99
2019-05-02T03:15:00.477Z,99.99
2019-05-02T03:16:00.277Z,99.99
2019-05-02T03:17:00.453Z,99.99
2019-05-02T03:18:00.370Z,99.99
2019-05-02T03:18:59.432Z,99.99
2019-05-02T03:20:03.435Z,99.99
2019-05-02T03:20:59.429Z,99.99
2019-05-02T03:22:01.611Z,99.99
2019-05-02T03:22:59.385Z,99.99
2019-05-02T03:24:03.169Z,99.99
2019-05-02T03:25:00.372Z,99.99
2019-05-02T03:25:59.379Z,99.52
2019-05-02T03:26:59.363Z,99.57
2019-05-02T03:27:59.384Z,99.43
2019-05-02T03:29:00.757Z,99.52
2019-05-02T03:29:59.346Z,99.84
2019-05-02T03:30:59.338Z,99.84
2019-05-02T03:32:14.577Z,99.68
2019-05-02T03:33:09.741Z,98.96
2019-05-02T03:34:01.387Z,98.96
2019-05-02T03:34:59.256Z,98.65
2019-05-02T03:35:59.276Z,98.75
2019-05-02T03:37:03.362Z,98.80
2019-05-02T03:38:00.222Z,99.26
2019-05-02T03:38:59.225Z,98.65
2019-05-02T03:40:00.674Z,98.85
2019-05-02T03:40:59.222Z,99.01
2019-05-02T03:42:02.842Z,98.85
2019-05-02T03:42:59.184Z,98.80
2019-05-02T03:44:10.465Z,98.91
2019-05-02T03:45:04.418Z,98.80
2019-05-02T03:45:59.159Z,98.85
2019-05-02T03:47:02.188Z,98.80
2019-05-02T03:48:00.128Z,98.80
2019-05-02T03:49:07.202Z,98.80
2019-05-02T03:50:00.106Z,98.91
2019-05-02T03:50:59.130Z,98.91
2019-05-02T03:52:02.671Z,98.91
2019-05-02T03:53:00.067Z,98.70
2019-05-02T03:54:07.057Z,98.60
2019-05-02T03:55:00.044Z,98.08
2019-05-02T03:56:10.767Z,97.98
2019-05-02T03:57:00.029Z,98.08
2019-05-02T03:57:59.021Z,98.39
2019-05-02T03:58:59.037Z,98.39
2019-05-02T03:59:58.999Z,98.29
2019-05-02T04:01:01.524Z,97.88
2019-05-02T04:01:59.158Z,98.39
2019-05-02T04:03:00.189Z,98.39
2019-05-02T04:03:58.951Z,98.29
2019-05-02T04:05:00.733Z,98.39
2019-05-02T04:05:58.932Z,98.39
2019-05-02T04:07:01.197Z,98.29
2019-05-02T04:07:58.907Z,98.39
2019-05-02T04:09:00.181Z,98.19
2019-05-02T04:09:58.892Z,98.19
2019-05-02T04:10:59.770Z,98.08
2019-05-02T04:11:58.892Z,98.39
2019-05-02T04:12:59.949Z,98.39
2019-05-02T04:13:58.857Z,97.98
2019-05-02T04:14:58.831Z,97.77
2019-05-02T04:15:58.837Z,97.98
2019-05-02T04:16:58.849Z,97.88
2019-05-02T04:17:58.798Z,97.98
2019-05-02T04:18:58.794Z,98.03
2019-05-02T04:19:58.790Z,97.83
2019-05-02T04:20:58.769Z,98.24
2019-05-02T04:22:01.882Z,97.73
2019-05-02T04:22:59.752Z,97.31
2019-05-02T04:24:12.768Z,97.11
2019-05-02T04:24:59.736Z,97.21
2019-05-02T04:25:58.743Z,97.42
2019-05-02T04:26:58.724Z,97.17
2019-05-02T04:27:58.699Z,96.66
2019-05-02T04:28:58.692Z,96.86
2019-05-02T04:30:09.790Z,96.55
2019-05-02T04:30:59.666Z,96.66
2019-05-02T04:32:04.298Z,96.96
2019-05-02T04:32:59.661Z,96.86
2019-05-02T04:33:58.649Z,96.50
2019-05-02T04:34:58.618Z,96.30
2019-05-02T04:35:59.500Z,96.09
2019-05-02T04:37:00.949Z,96.05
2019-05-02T04:38:02.678Z,95.78
2019-05-02T04:38:59.747Z,95.53
2019-05-02T04:40:02.999Z,95.33
2019-05-02T04:40:59.195Z,95.33
2019-05-02T04:42:04.790Z,95.12
2019-05-02T04:43:05.475Z,94.81
2019-05-02T04:44:01.671Z,93.99
2019-05-02T04:45:13.920Z,94.26
2019-05-02T04:46:00.157Z,94.40
2019-05-02T04:47:06.474Z,94.09
2019-05-02T04:48:03.846Z,94.15
2019-05-02T04:48:59.025Z,93.84
2019-05-02T04:49:58.668Z,93.74
2019-05-02T04:51:08.837Z,94.15
2019-05-02T04:52:06.310Z,93.23
2019-05-02T04:52:59.427Z,93.12
2019-05-02T04:53:58.885Z,93.43
2019-05-02T04:55:08.244Z,93.33
2019-05-02T04:56:04.399Z,93.33
2019-05-02T04:57:02.316Z,93.29
2019-05-02T04:58:01.659Z,92.97
2019-05-02T04:59:01.172Z,93.23
2019-05-02T05:00:06.515Z,92.67
2019-05-02T05:01:01.893Z,92.97
2019-05-02T05:02:01.399Z,92.67
2019-05-02T05:02:58.345Z,92.05
2019-05-02T05:04:03.171Z,91.64
2019-05-02T05:04:59.298Z,92.36
2019-05-02T05:05:59.411Z,92.36
2019-05-02T05:07:01.062Z,92.05
2019-05-02T05:07:58.612Z,91.80
2019-05-02T05:08:58.591Z,92.21
2019-05-02T05:10:03.137Z,91.19
2019-05-02T05:10:59.226Z,91.23
2019-05-02T05:12:01.328Z,91.39
2019-05-02T05:12:58.225Z,91.19
2019-05-02T05:14:00.320Z,91.39
2019-05-02T05:15:00.492Z,91.39
2019-05-02T05:15:58.184Z,90.67
2019-05-02T05:16:58.201Z,90.98
2019-05-02T05:17:58.309Z,91.19
2019-05-02T05:18:59.944Z,90.98
2019-05-02T05:20:00.150Z,91.19
2019-05-02T05:20:58.123Z,91.08
2019-05-02T05:22:04.386Z,91.08
2019-05-02T05:22:59.127Z,90.78
2019-05-02T05:24:01.351Z,90.26
2019-05-02T05:24:58.328Z,90.06
2019-05-02T05:26:03.395Z,91.19
2019-05-02T05:27:00.187Z,91.29
2019-05-02T05:28:05.255Z,90.16
2019-05-02T05:28:59.045Z,90.57
2019-05-02T05:29:59.449Z,90.06
2019-05-02T05:30:59.018Z,89.85
2019-05-02T05:32:05.251Z,89.81
2019-05-02T05:32:59.016Z,89.34
2019-05-02T05:33:58.119Z,89.29
2019-05-02T05:34:58.062Z,89.70
2019-05-02T05:35:57.966Z,89.09
2019-05-02T05:36:58.382Z,89.09
2019-05-02T05:37:57.963Z,90.47
2019-05-02T05:38:58.437Z,90.53
2019-05-02T05:39:58.063Z,90.57
2019-05-02T05:40:58.119Z,91.29
2019-05-02T05:41:57.957Z,91.19
2019-05-02T05:43:02.704Z,90.67
2019-05-02T05:43:58.875Z,90.06
2019-05-02T05:44:58.381Z,90.42
2019-05-02T05:46:09.337Z,90.42
2019-05-02T05:46:58.884Z,90.42
2019-05-02T05:48:01.058Z,90.42
2019-05-02T05:48:58.445Z,90.36
2019-05-02T05:50:01.026Z,90.32
2019-05-02T05:50:58.047Z,89.91
2019-05-02T05:52:02.281Z,90.48
2019-05-02T05:52:59.560Z,90.48
2019-05-02T05:54:02.804Z,90.59
2019-05-02T05:54:58.760Z,89.46
2019-05-02T05:55:59.002Z,89.42
2019-05-02T05:56:57.732Z,89.42
2019-05-02T05:58:03.190Z,88.59
2019-05-02T05:58:59.253Z,88.14
2019-05-02T05:59:58.414Z,87.94
2019-05-02T06:00:58.420Z,87.73
2019-05-02T06:01:58.093Z,87.12
2019-05-02T06:03:10.117Z,86.40
2019-05-02T06:03:58.684Z,86.71
2019-05-02T06:05:02.506Z,86.05
2019-05-02T06:05:58.660Z,86.81
2019-05-02T06:07:01.602Z,87.38
2019-05-02T06:07:58.623Z,86.25
2019-05-02T06:08:57.631Z,86.81
2019-05-02T06:09:57.601Z,86.98
2019-05-02T06:10:57.593Z,87.38
2019-05-02T06:11:57.574Z,87.38
2019-05-02T06:12:57.566Z,87.79
2019-05-02T06:13:57.582Z,87.65
2019-05-02T06:15:01.915Z,87.70
2019-05-02T06:16:02.652Z,87.08
2019-05-02T06:16:57.525Z,87.70
2019-05-02T06:17:59.970Z,87.28
2019-05-02T06:18:58.524Z,86.93
2019-05-02T06:19:57.494Z,86.87
2019-05-02T06:20:58.457Z,86.83
2019-05-02T06:21:57.469Z,87.14
2019-05-02T06:23:00.065Z,87.34
2019-05-02T06:23:57.466Z,87.65
2019-05-02T06:24:57.430Z,87.65
2019-05-02T06:25:57.427Z,86.63
2019-05-02T06:26:57.421Z,87.24
2019-05-02T06:28:00.109Z,86.52
2019-05-02T06:28:58.420Z,86.52
2019-05-02T06:29:57.422Z,86.58
2019-05-02T06:30:57.397Z,86.63
2019-05-02T06:31:57.363Z,86.48
2019-05-02T06:32:57.352Z,86.48
2019-05-02T06:33:57.361Z,85.97
2019-05-02T06:34:57.327Z,85.87
2019-05-02T06:36:01.054Z,86.28
2019-05-02T06:36:58.301Z,85.87
2019-05-02T06:37:57.293Z,85.77
2019-05-02T06:38:57.928Z,85.11
2019-05-02T06:39:57.277Z,86.28
2019-05-02T06:40:57.265Z,85.72
2019-05-02T06:41:58.675Z,85.07
2019-05-02T06:42:57.238Z,84.91
2019-05-02T06:43:57.257Z,84.70
2019-05-02T06:44:59.659Z,85.38
2019-05-02T06:45:57.209Z,84.87
2019-05-02T06:46:59.110Z,85.11
2019-05-02T06:48:01.007Z,84.87
2019-05-02T06:48:57.189Z,84.25
2019-05-02T06:50:01.091Z,84.36
2019-05-02T06:50:58.170Z,84.36
2019-05-02T06:51:57.719Z,84.25
2019-05-02T06:52:57.139Z,85.07
2019-05-02T06:53:57.152Z,84.72
2019-05-02T06:54:57.977Z,84.31
2019-05-02T06:55:57.099Z,83.66
2019-05-02T06:56:57.084Z,83.66
2019-05-02T06:58:02.848Z,82.70
2019-05-02T06:58:58.091Z,82.75
2019-05-02T06:59:57.061Z,82.81
2019-05-02T07:00:58.931Z,82.54
2019-05-02T07:01:58.660Z,82.20
2019-05-02T07:02:57.026Z,81.48
2019-05-02T07:03:57.078Z,81.07
2019-05-02T07:04:57.008Z,81.34
2019-05-02T07:05:58.851Z,80.73
2019-05-02T07:06:59.488Z,80.21
2019-05-02T07:07:56.970Z,79.66
2019-05-02T07:08:59.662Z,78.64
2019-05-02T07:09:57.293Z,78.75
2019-05-02T07:11:01.419Z,80.58
2019-05-02T07:12:01.378Z,79.80
2019-05-02T07:13:10.068Z,80.52
2019-05-02T07:13:57.939Z,79.64
2019-05-02T07:15:01.505Z,81.17
2019-05-02T07:15:57.878Z,80.87
2019-05-02T07:16:56.903Z,80.90
2019-05-02T07:17:56.865Z,81.62
2019-05-02T07:18:56.851Z,81.51
2019-05-02T07:19:58.865Z,80.80
2019-05-02T07:20:57.827Z,81.38
2019-05-02T07:21:58.590Z,80.87
2019-05-02T07:22:56.809Z,80.56
2019-05-02T07:23:56.803Z,79.64
2019-05-02T07:24:56.814Z,78.78
2019-05-02T07:25:59.947Z,78.38
2019-05-02T07:26:57.082Z,77.42
2019-05-02T07:27:56.751Z,77.62
2019-05-02T07:28:56.739Z,77.83
2019-05-02T07:29:57.639Z,77.62
2019-05-02T07:30:56.722Z,77.52
2019-05-02T07:31:56.759Z,78.44
2019-05-02T07:33:01.197Z,79.29
2019-05-02T07:33:57.735Z,77.62
2019-05-02T07:34:56.699Z,77.83
2019-05-02T07:36:00.073Z,76.60
2019-05-02T07:36:56.666Z,77.25
2019-05-02T07:37:56.655Z,77.70
2019-05-02T07:38:57.594Z,77.49
2019-05-02T07:39:57.638Z,77.08
2019-05-02T07:40:56.610Z,77.80
2019-05-02T07:42:00.393Z,77.66
2019-05-02T07:42:57.590Z,77.49
2019-05-02T07:43:57.506Z,77.70
2019-05-02T07:44:56.603Z,78.72
2019-05-02T07:45:56.559Z,78.20
2019-05-02T07:46:57.020Z,78.41
2019-05-02T07:47:57.531Z,77.73
2019-05-02T07:48:56.719Z,78.96
2019-05-02T07:49:56.534Z,79.68
2019-05-02T07:50:56.875Z,79.98
2019-05-02T07:51:57.663Z,79.64
2019-05-02T07:52:56.502Z,78.72
2019-05-02T07:53:56.472Z,78.48
2019-05-02T07:55:01.227Z,78.48
2019-05-02T07:55:57.489Z,77.76
2019-05-02T07:56:56.468Z,77.45
2019-05-02T07:57:56.430Z,77.76
2019-05-02T07:58:56.417Z,76.84
2019-05-02T08:00:00.468Z,76.78
2019-05-02T08:00:57.431Z,77.66
2019-05-02T08:01:56.387Z,77.56
2019-05-02T08:02:57.984Z,77.66
2019-05-02T08:03:56.368Z,77.56
2019-05-02T08:04:56.349Z,77.72
2019-05-02T08:05:58.521Z,76.40
2019-05-02T08:06:56.334Z,76.09
2019-05-02T08:07:56.323Z,76.33
2019-05-02T08:08:56.320Z,77.76
2019-05-02T08:09:56.299Z,76.94
2019-05-02T08:11:01.723Z,77.56
2019-05-02T08:11:57.283Z,77.35
2019-05-02T08:12:56.264Z,77.49
2019-05-02T08:14:00.417Z,77.90
2019-05-02T08:14:56.244Z,78.72
2019-05-02T08:15:56.272Z,77.86
2019-05-02T08:17:05.271Z,77.04
2019-05-02T08:17:57.211Z,75.82
2019-05-02T08:18:56.198Z,75.78
2019-05-02T08:19:56.186Z,74.18
2019-05-02T08:20:57.353Z,75.10
2019-05-02T08:21:56.172Z,73.13
2019-05-02T08:22:56.155Z,72.45
2019-05-02T08:23:57.196Z,72.38
2019-05-02T08:24:57.136Z,72.72
2019-05-02T08:25:56.155Z,72.38
2019-05-02T08:26:58.389Z,72.34
2019-05-02T08:27:56.109Z,72.04
2019-05-02T08:28:56.097Z,72.65
2019-05-02T08:30:00.050Z,72.31
2019-05-02T08:30:57.090Z,71.56
2019-05-02T08:31:56.061Z,70.92
2019-05-02T08:32:56.049Z,70.21
2019-05-02T08:33:56.038Z,70.07
2019-05-02T08:34:56.032Z,70.28
2019-05-02T08:35:56.046Z,68.88
2019-05-02T08:36:58.942Z,70.31
2019-05-02T08:37:56.999Z,70.34
2019-05-02T08:38:55.992Z,71.26
2019-05-02T08:39:55.979Z,70.04
2019-05-02T08:40:55.987Z,69.60
2019-05-02T08:41:57.813Z,68.99
2019-05-02T08:42:55.939Z,69.84
2019-05-02T08:43:55.927Z,70.92
2019-05-02T08:44:56.383Z,70.65
2019-05-02T08:45:55.926Z,70.34
2019-05-02T08:46:55.899Z,68.07
2019-05-02T08:47:55.893Z,67.94
2019-05-02T08:48:55.880Z,67.27
2019-05-02T08:49:56.705Z,67.36
2019-05-02T08:50:55.874Z,66.39
2019-05-02T08:51:55.840Z,65.27
2019-05-02T08:52:55.838Z,66.05
2019-05-02T08:53:56.738Z,67.47
2019-05-02T08:54:55.812Z,66.29
2019-05-02T08:55:55.819Z,64.20
2019-05-02T08:56:59.118Z,63.15
2019-05-02T08:57:55.779Z,63.15
2019-05-02T08:58:55.768Z,62.65
2019-05-02T09:00:00.251Z,62.95
2019-05-02T09:00:56.846Z,63.65
2019-05-02T09:01:55.763Z,65.00
2019-05-02T09:02:57.183Z,65.23
2019-05-02T09:03:57.132Z,65.44
2019-05-02T09:04:58.602Z,65.77
2019-05-02T09:06:05.599Z,66.15
2019-05-02T09:06:58.706Z,65.71
2019-05-02T09:07:55.695Z,65.44
2019-05-02T09:08:55.672Z,66.69
2019-05-02T09:09:55.710Z,66.35
2019-05-02T09:10:55.658Z,67.87
2019-05-02T09:12:09.108Z,67.80
2019-05-02T09:12:56.632Z,70.28
2019-05-02T09:13:55.608Z,70.31
2019-05-02T09:14:55.598Z,70.58
2019-05-02T09:15:55.666Z,69.23
2019-05-02T09:16:55.601Z,69.70
2019-05-02T09:17:56.539Z,67.13
2019-05-02T09:18:55.579Z,67.50
2019-05-02T09:20:02.670Z,67.33
2019-05-02T09:20:56.903Z,67.43
2019-05-02T09:21:55.524Z,66.38
2019-05-02T09:22:56.032Z,66.49
2019-05-02T09:23:55.515Z,65.20
2019-05-02T09:24:55.511Z,66.35
2019-05-02T09:25:55.483Z,64.26
2019-05-02T09:26:55.467Z,62.65
2019-05-02T09:27:55.450Z,62.38
2019-05-02T09:28:56.262Z,58.34
2019-05-02T09:29:56.449Z,56.37
2019-05-02T09:30:57.457Z,54.23
2019-05-02T09:31:56.436Z,53.96
2019-05-02T09:32:57.271Z,54.16
2019-05-02T09:33:56.411Z,55.06
2019-05-02T09:34:56.610Z,53.85
2019-05-02T09:35:56.371Z,55.46
2019-05-02T09:36:55.352Z,56.05
2019-05-02T09:37:55.365Z,57.20
2019-05-02T09:38:57.581Z,55.57
2019-05-02T09:39:55.347Z,52.04
2019-05-02T09:40:56.323Z,50.91
2019-05-02T09:41:55.300Z,51.68
2019-05-02T09:43:00.042Z,50.89
2019-05-02T09:43:56.285Z,53.25
2019-05-02T09:44:56.908Z,55.04
2019-05-02T09:45:55.282Z,56.35
2019-05-02T09:46:56.988Z,55.49
2019-05-02T09:48:04.057Z,53.07
2019-05-02T09:48:56.999Z,52.31
2019-05-02T09:49:56.215Z,52.51
2019-05-02T09:50:57.736Z,53.85
2019-05-02T09:51:59.137Z,54.71
2019-05-02T09:52:56.208Z,53.34
2019-05-02T09:53:57.048Z,50.09
2019-05-02T09:54:56.166Z,47.71
2019-05-02T09:55:57.959Z,45.84
2019-05-02T09:56:55.166Z,46.18
2019-05-02T09:57:55.162Z,47.65
2019-05-02T09:59:06.204Z,48.31
2019-05-02T09:59:56.108Z,46.24
2019-05-02T10:00:55.145Z,43.67
2019-05-02T10:01:55.116Z,42.87
2019-05-02T10:02:55.111Z,44.35
2019-05-02T10:03:55.075Z,46.34
2019-05-02T10:04:55.095Z,45.94
2019-05-02T10:05:55.059Z,46.76
2019-05-02T10:06:55.083Z,44.96
2019-05-02T10:07:57.371Z,45.92
2019-05-02T10:08:56.020Z,48.61
2019-05-02T10:09:57.705Z,53.52
2019-05-02T10:10:56.003Z,56.71
2019-05-02T10:11:55.002Z,55.80
2019-05-02T10:12:54.992Z,54.21
2019-05-02T10:13:55.466Z,53.75
2019-05-02T10:14:54.961Z,51.39
2019-05-02T10:15:54.941Z,48.98
2019-05-02T10:16:57.713Z,46.61
2019-05-02T10:18:07.823Z,46.61
2019-05-02T10:18:55.946Z,47.54
2019-05-02T10:19:57.164Z,44.23
2019-05-02T10:20:54.909Z,43.63
2019-05-02T10:21:56.406Z,44.09
2019-05-02T10:22:54.905Z,43.49
2019-05-02T10:23:59.439Z,43.85
2019-05-02T10:24:55.841Z,48.80
2019-05-02T10:25:54.833Z,48.65
2019-05-02T10:27:03.320Z,46.55
2019-05-02T10:27:55.838Z,45.64
2019-05-02T10:28:54.817Z,45.17
2019-05-02T10:29:57.149Z,43.79
2019-05-02T10:30:56.552Z,44.79
2019-05-02T10:31:54.776Z,44.07
2019-05-02T10:32:57.269Z,45.83
2019-05-02T10:33:54.766Z,48.47
2019-05-02T10:34:56.786Z,51.84
2019-05-02T10:35:54.733Z,51.36
2019-05-02T10:36:59.095Z,52.77
2019-05-02T10:37:55.710Z,52.42
2019-05-02T10:38:59.217Z,53.02
2019-05-02T10:39:55.921Z,52.51
2019-05-02T10:41:01.687Z,53.14
2019-05-02T10:41:57.557Z,55.74
2019-05-02T10:42:54.659Z,56.02
2019-05-02T10:43:57.662Z,56.73
2019-05-02T10:44:54.657Z,56.59
2019-05-02T10:45:56.489Z,57.09
2019-05-02T10:46:54.619Z,58.00
2019-05-02T10:47:54.597Z,57.44
2019-05-02T10:48:54.590Z,56.53
2019-05-02T10:49:54.600Z,56.27
2019-05-02T10:50:54.592Z,55.34
2019-05-02T10:51:54.564Z,54.79
2019-05-02T10:52:54.552Z,53.67
2019-05-02T10:53:56.379Z,53.47
2019-05-02T10:54:54.545Z,52.67
2019-05-02T10:55:54.537Z,53.25
2019-05-02T10:56:54.518Z,52.92
2019-05-02T10:57:54.500Z,52.57
2019-05-02T10:58:54.489Z,55.11
2019-05-02T10:59:56.152Z,52.59
2019-05-02T11:00:54.461Z,53.80
2019-05-02T11:01:54.473Z,53.09
2019-05-02T11:02:54.450Z,54.41
2019-05-02T11:03:54.443Z,52.49
2019-05-02T11:04:54.424Z,53.22
2019-05-02T11:05:58.027Z,53.00
2019-05-02T11:06:56.787Z,53.42
2019-05-02T11:07:56.827Z,54.79
2019-05-02T11:08:55.377Z,55.41
2019-05-02T11:09:57.245Z,55.69
2019-05-02T11:10:55.355Z,55.77
2019-05-02T11:11:54.355Z,55.21
2019-05-02T11:12:56.143Z,56.61
2019-05-02T11:14:01.107Z,56.81
2019-05-02T11:14:55.334Z,56.56
2019-05-02T11:15:54.296Z,55.85
2019-05-02T11:16:56.753Z,55.09
2019-05-02T11:17:54.282Z,53.65
2019-05-02T11:18:54.268Z,53.98
2019-05-02T11:19:54.300Z,55.24
2019-05-02T11:20:54.242Z,56.15
2019-05-02T11:21:58.829Z,56.43
2019-05-02T11:22:54.657Z,54.00
2019-05-02T11:23:54.319Z,54.81
2019-05-02T11:24:54.211Z,56.35
2019-05-02T11:25:54.216Z,55.11
2019-05-02T11:26:54.244Z,53.67
2019-05-02T11:27:57.343Z,53.96
2019-05-02T11:28:55.157Z,54.05
2019-05-02T11:29:54.170Z,54.46
2019-05-02T11:30:57.025Z,52.61
2019-05-02T11:31:55.137Z,54.99
2019-05-02T11:32:54.128Z,54.91
2019-05-02T11:33:54.206Z,56.23
2019-05-02T11:34:54.117Z,57.70
2019-05-02T11:35:54.165Z,57.20
2019-05-02T11:36:54.082Z,57.40
2019-05-02T11:37:54.065Z,57.67
2019-05-02T11:39:03.156Z,56.40
2019-05-02T11:40:00.295Z,55.54
2019-05-02T11:40:55.025Z,54.00
2019-05-02T11:41:54.026Z,54.08
2019-05-02T11:42:57.343Z,53.34
2019-05-02T11:43:55.854Z,52.64
2019-05-02T11:44:53.994Z,51.33
2019-05-02T11:46:01.444Z,52.82
2019-05-02T11:46:54.968Z,50.62
2019-05-02T11:47:56.042Z,50.60
2019-05-02T11:48:58.319Z,51.51
2019-05-02T11:49:55.840Z,50.42
2019-05-02T11:50:53.925Z,51.98
2019-05-02T11:51:57.045Z,51.98
2019-05-02T11:52:53.923Z,52.26
2019-05-02T11:53:53.891Z,52.64
2019-05-02T11:54:53.882Z,53.38
2019-05-02T11:55:58.198Z,53.17
2019-05-02T11:56:54.862Z,53.90
2019-05-02T11:57:53.850Z,54.74
2019-05-02T11:58:53.847Z,54.23
2019-05-02T11:59:53.823Z,54.81
2019-05-02T12:00:53.816Z,53.75
2019-05-02T12:01:59.808Z,52.64
2019-05-02T12:02:58.078Z,53.47
2019-05-02T12:03:53.788Z,52.94
2019-05-02T12:04:55.518Z,53.52
2019-05-02T12:05:53.777Z,52.47
2019-05-02T12:07:00.937Z,53.09
2019-05-02T12:07:54.743Z,54.66
2019-05-02T12:08:53.754Z,54.66
2019-05-02T12:09:57.148Z,53.83
2019-05-02T12:10:53.707Z,53.20
2019-05-02T12:11:56.683Z,52.47
2019-05-02T12:12:53.695Z,52.87
2019-05-02T12:13:56.926Z,52.26
2019-05-02T12:14:53.691Z,51.89
2019-05-02T12:15:53.678Z,52.16
2019-05-02T12:16:53.648Z,51.96
2019-05-02T12:17:53.644Z,50.73
2019-05-02T12:18:57.990Z,50.42
2019-05-02T12:19:54.637Z,51.73
2019-05-02T12:20:53.601Z,51.93
2019-05-02T12:21:53.590Z,50.62
2019-05-02T12:22:53.584Z,49.47
2019-05-02T12:23:53.568Z,46.95
2019-05-02T12:24:53.550Z,50.65
2019-05-02T12:25:53.592Z,51.16
2019-05-02T12:26:53.536Z,48.24
2019-05-02T12:27:53.526Z,46.14
2019-05-02T12:28:53.526Z,47.67
2019-05-02T12:29:57.850Z,47.78
2019-05-02T12:30:54.507Z,47.78
2019-05-02T12:31:56.402Z,46.45
2019-05-02T12:32:53.462Z,48.49
2019-05-02T12:33:53.452Z,47.78
2019-05-02T12:34:53.452Z,47.98
2019-05-02T12:35:53.454Z,46.89
2019-05-02T12:36:53.418Z,48.71
2019-05-02T12:37:55.186Z,50.90
2019-05-02T12:38:53.417Z,47.38
2019-05-02T12:39:53.401Z,46.17
2019-05-02T12:40:53.404Z,46.65
2019-05-02T12:41:54.110Z,47.03
2019-05-02T12:42:53.355Z,47.83
2019-05-02T12:43:53.339Z,48.72
2019-05-02T12:44:53.414Z,46.48
2019-05-02T12:45:53.509Z,45.50
2019-05-02T12:46:53.318Z,44.19
2019-05-02T12:47:53.316Z,46.55
2019-05-02T12:48:53.294Z,46.34
2019-05-02T12:49:53.280Z,46.57
2019-05-02T12:50:53.289Z,47.60
2019-05-02T12:51:53.277Z,48.02